地図

経路データ

SID SEASON NUMBER BASIN SUBBASIN NAME ISO_TIME NATURE LAT LON WMO_WIND WMO_PRES WMO_AGENCY TRACK_TYPE DIST2LAND LANDFALL IFLAG USA_AGENCY USA_ATCF_ID USA_LAT USA_LON USA_RECORD USA_STATUS USA_WIND USA_PRES USA_SSHS USA_R34_NE USA_R34_SE USA_R34_SW USA_R34_NW USA_R50_NE USA_R50_SE USA_R50_SW USA_R50_NW USA_R64_NE USA_R64_SE USA_R64_SW USA_R64_NW USA_POCI USA_ROCI USA_RMW USA_EYE TOKYO_LAT TOKYO_LON TOKYO_GRADE TOKYO_WIND TOKYO_PRES TOKYO_R50_DIR TOKYO_R50_LONG TOKYO_R50_SHORT TOKYO_R30_DIR TOKYO_R30_LONG TOKYO_R30_SHORT TOKYO_LAND CMA_LAT CMA_LON CMA_CAT CMA_WIND CMA_PRES HKO_LAT HKO_LON HKO_CAT HKO_WIND HKO_PRES NEWDELHI_LAT NEWDELHI_LON NEWDELHI_GRADE NEWDELHI_WIND NEWDELHI_PRES NEWDELHI_CI NEWDELHI_DP NEWDELHI_POCI REUNION_LAT REUNION_LON REUNION_TYPE REUNION_WIND REUNION_PRES REUNION_TNUM REUNION_CI REUNION_RMW REUNION_R34_NE REUNION_R34_SE REUNION_R34_SW REUNION_R34_NW REUNION_R50_NE REUNION_R50_SE REUNION_R50_SW REUNION_R50_NW REUNION_R64_NE REUNION_R64_SE REUNION_R64_SW REUNION_R64_NW BOM_LAT BOM_LON BOM_TYPE BOM_WIND BOM_PRES BOM_TNUM BOM_CI BOM_RMW BOM_R34_NE BOM_R34_SE BOM_R34_SW BOM_R34_NW BOM_R50_NE BOM_R50_SE BOM_R50_SW BOM_R50_NW BOM_R64_NE BOM_R64_SE BOM_R64_SW BOM_R64_NW BOM_ROCI BOM_POCI BOM_EYE BOM_POS_METHOD BOM_PRES_METHOD NADI_LAT NADI_LON NADI_CAT NADI_WIND NADI_PRES WELLINGTON_LAT WELLINGTON_LON WELLINGTON_WIND WELLINGTON_PRES DS824_LAT DS824_LON DS824_STAGE DS824_WIND DS824_PRES TD9636_LAT TD9636_LON TD9636_STAGE TD9636_WIND TD9636_PRES TD9635_LAT TD9635_LON TD9635_WIND TD9635_PRES TD9635_ROCI NEUMANN_LAT NEUMANN_LON NEUMANN_CLASS NEUMANN_WIND NEUMANN_PRES MLC_LAT MLC_LON MLC_CLASS MLC_WIND MLC_PRES USA_GUST BOM_GUST BOM_GUST_PER REUNION_GUST REUNION_GUST_PER USA_SEAHGT USA_SEARAD_NE USA_SEARAD_SE USA_SEARAD_SW USA_SEARAD_NW STORM_SPEED STORM_DIR
1924292N14092 1924 46 NI BB NOT_NAMED 1924-10-18 00:00:00 TS 14.3000 91.7000 main 329 316 _________O____ -1 14.3000 91.7000 TC 30 4 2
1924292N14092 1924 46 NI BB NOT_NAMED 1924-10-18 03:00:00 TS 14.5017 91.7000 main 316 294 _________PO___ -1 14.6025 91.7000 TC 30 14.3000 91.7000 1 6 359
1924292N14092 1924 46 NI BB NOT_NAMED 1924-10-18 06:00:00 TS 14.9038 91.6988 main 294 276 _________OP___ -1 15.0000 91.7000 TC 30 14.7594 91.6969 1 9 0
1924292N14092 1924 46 NI BB NOT_NAMED 1924-10-18 09:00:00 TS 15.4022 91.6979 main 276 267 _________PP___ -1 15.5425 91.7000 TC 30 15.2151 91.6951 1 10 359
1924292N14092 1924 46 NI BB NOT_NAMED 1924-10-18 12:00:00 TS 15.8816 91.6978 main 267 267 _________OP___ -1 16.1000 91.7000 TC 30 15.6632 91.6957 1 9 0
1924292N14092 1924 46 NI BB NOT_NAMED 1924-10-18 15:00:00 TS 16.3150 91.7000 main 269 269 _________PO___ -1 16.5300 91.7000 TC 30 16.1000 91.7000 1 8 1
1924292N14092 1924 46 NI BB NOT_NAMED 1924-10-18 18:00:00 TS 16.7104 91.7040 main 278 278 _________OP___ -1 16.9000 91.7000 TC 30 16.5209 91.7080 1 8 2
1924292N14092 1924 46 NI BB NOT_NAMED 1924-10-18 21:00:00 TS 17.0950 91.7112 main 284 276 _________PP___ -1 17.2725 91.7075 TC 30 16.9174 91.7149 1 7 0
1924292N14092 1924 46 NI BB NOT_NAMED 1924-10-19 00:00:00 TS 17.4401 91.7071 main 276 256 _________OP___ -1 17.6000 91.7000 TC 30 17.2803 91.7143 1 6 356
1924292N14092 1924 46 NI BB NOT_NAMED 1924-10-19 03:00:00 TS 17.7362 91.6788 main 256 244 _________PO___ -1 17.8725 91.6575 TC 30 17.6000 91.7000 1 6 351
1924292N14092 1924 46 NI BB NOT_NAMED 1924-10-19 06:00:00 TS 17.9820 91.6282 main 248 238 _________OP___ -1 18.1000 91.6000 TC 30 17.8641 91.6564 1 5 347
1924292N14092 1924 46 NI BB NOT_NAMED 1924-10-19 09:00:00 TS 18.1938 91.5713 main 238 234 _________PP___ -1 18.3000 91.5425 TC 30 18.0875 91.6002 1 4 345
1924292N14092 1924 46 NI BB NOT_NAMED 1924-10-19 12:00:00 TS 18.3961 91.5219 main 240 222 _________OP___ -1 18.5000 91.5000 TC 30 18.2922 91.5439 1 4 351
1924292N14092 1924 46 NI BB NOT_NAMED 1924-10-19 15:00:00 TS 18.6213 91.4962 main 222 206 _________PO___ -1 18.7425 91.4925 TC 30 18.5000 91.5000 1 5 0
1924292N14092 1924 46 NI BB NOT_NAMED 1924-10-19 18:00:00 TS 18.8633 91.4928 main 198 183 _________OP___ -1 19.0000 91.5000 TC 30 18.7266 91.4855 1 5 357
1924292N14092 1924 46 NI BB NOT_NAMED 1924-10-19 21:00:00 TS 19.0988 91.4924 main 183 168 _________PP___ -1 19.2350 91.5000 TC 30 18.9625 91.4849 1 5 2
1924292N14092 1924 46 NI BB NOT_NAMED 1924-10-20 00:00:00 TS 19.3586 91.4959 main 160 147 _________OP___ -1 19.5000 91.5000 TC 30 19.2172 91.4918 1 6 2
1924292N14092 1924 46 NI BB NOT_NAMED 1924-10-20 03:00:00 TS 19.6675 91.5000 main 142 122 _________PO___ -1 19.8350 91.5000 TC 30 19.5000 91.5000 1 7 0
1924292N14092 1924 46 NI BB NOT_NAMED 1924-10-20 06:00:00 TS 20.0127 91.5020 main 122 103 _________OP___ -1 20.2000 91.5000 TC 30 19.8253 91.5040 1 7 2
1924292N14092 1924 46 NI BB NOT_NAMED 1924-10-20 09:00:00 TS 20.3638 91.5037 main 99 83 _________PP___ -1 20.5500 91.5000 TC 30 20.1775 91.5074 1 7 0
1924292N14092 1924 46 NI BB NOT_NAMED 1924-10-20 12:00:00 TS 20.7205 91.5036 main 83 60 _________OP___ -1 20.9000 91.5000 TC 30 20.5409 91.5071 1 7 2
1924292N14092 1924 46 NI BB NOT_NAMED 1924-10-20 15:00:00 TS 21.0787 91.5037 main 60 42 _________PO___ -1 21.2575 91.5075 TC 30 20.9000 91.5000 1 7 0
1924292N14092 1924 46 NI BB NOT_NAMED 1924-10-20 18:00:00 TS 21.3957 91.4908 main 42 41 _________OP___ -1 21.6000 91.5000 TC 30 21.2425 91.4839 1 6 357
1924292N14092 1924 46 NI BB NOT_NAMED 1924-10-20 21:00:00 TS 21.7060 91.4601 main 42 41 _________PP___ -1 21.9100 91.4601 TC 30 21.5700 91.4602 1 6 353
1924292N14092 1924 46 NI BB NOT_NAMED 1924-10-21 00:00:00 TS 21.9917 91.4209 main 46 41 _________OP___ -1 22.2000 91.4000 TC 30 21.8875 91.4314 1 5 353
1924292N14092 1924 46 NI BB NOT_NAMED 1924-10-21 03:00:00 NR 22.2000 91.4000 main 41 __________O___ -1 TC 22.2000 91.4000 1 4 354

IBTrACS Databaseについて

本データベースは、米国NOAAが公開する1842年以降の世界の熱帯低気圧のベストトラックデータアーカイブInternational Best Track Archive for Climate Stewardship (IBTrACS)を、ウェブで閲覧しやすい形式に変換したものです。

最終更新日:2021-11-26